createdAt,value
2023-04-17T00:01:43.245Z,25.20
2023-04-17T00:06:46.527Z,23.60
2023-04-17T00:11:52.970Z,23.80
2023-04-17T00:16:56.668Z,24.40
2023-04-17T00:22:00.268Z,25.50
2023-04-17T00:27:03.501Z,25.20
2023-04-17T00:32:16.824Z,24.10
2023-04-17T00:37:20.256Z,26.80
2023-04-17T00:42:23.802Z,25.10
2023-04-17T00:47:27.766Z,24.00
2023-04-17T00:52:44.261Z,25.90
2023-04-17T00:57:50.778Z,28.30
2023-04-17T01:02:57.961Z,28.50
2023-04-17T01:08:03.772Z,25.80
2023-04-17T01:13:09.070Z,28.10
2023-04-17T01:18:12.997Z,26.30
2023-04-17T01:23:16.579Z,24.40
2023-04-17T01:28:20.172Z,27.60
2023-04-17T01:33:23.960Z,27.60
2023-04-17T01:38:27.389Z,25.70
2023-04-17T01:43:50.492Z,31.10
2023-04-17T01:48:54.527Z,26.30
2023-04-17T01:53:57.851Z,28.10
2023-04-17T01:59:01.566Z,28.50
2023-04-17T02:04:05.566Z,32.30
2023-04-17T02:09:09.825Z,33.00
2023-04-17T02:14:18.206Z,29.90
2023-04-17T02:19:25.116Z,30.30
2023-04-17T02:24:28.647Z,26.80
2023-04-17T02:29:41.812Z,27.60
2023-04-17T02:34:45.554Z,26.40
2023-04-17T02:39:49.807Z,24.30
2023-04-17T02:45:06.577Z,26.90
2023-04-17T02:50:11.228Z,27.30
2023-04-17T02:55:48.472Z,23.90
2023-04-17T03:01:01.554Z,23.80
2023-04-17T03:11:13.026Z,22.20
2023-04-17T03:16:16.995Z,24.40
2023-04-17T03:21:24.089Z,23.40
2023-04-17T03:26:27.930Z,28.50
2023-04-17T03:31:31.933Z,23.80
2023-04-17T03:36:36.446Z,22.90
2023-04-17T03:41:41.025Z,26.90
2023-04-17T03:46:46.550Z,28.10
2023-04-17T03:52:13.692Z,27.80
2023-04-17T03:57:20.706Z,27.40
2023-04-17T04:02:25.836Z,30.80
2023-04-17T04:07:30.790Z,30.10
2023-04-17T04:12:57.479Z,30.00
2023-04-17T04:18:24.436Z,28.80
2023-04-17T04:23:30.857Z,30.60
2023-04-17T04:28:34.471Z,30.00
2023-04-17T04:33:37.871Z,27.80
2023-04-17T04:38:45.743Z,29.90
2023-04-17T04:43:56.551Z,24.90
2023-04-17T04:49:00.556Z,27.10
2023-04-17T04:54:04.836Z,27.90
2023-04-17T04:59:10.299Z,26.10
2023-04-17T05:04:16.022Z,26.40
2023-04-17T05:09:51.350Z,28.20
2023-04-17T05:14:54.856Z,24.80
2023-04-17T05:19:59.177Z,27.10
2023-04-17T05:25:27.746Z,25.60
2023-04-17T05:30:35.252Z,27.50
2023-04-17T05:35:52.914Z,27.30
2023-04-17T05:41:01.809Z,28.20
2023-04-17T05:46:05.325Z,28.20
2023-04-17T05:51:09.331Z,83.40
2023-04-17T05:56:12.743Z,27.60
2023-04-17T06:01:18.271Z,25.30
2023-04-17T06:06:22.095Z,26.10
2023-04-17T06:11:25.781Z,24.00
2023-04-17T06:16:37.288Z,24.80
2023-04-17T06:21:40.997Z,24.00
2023-04-17T06:26:44.413Z,26.70
2023-04-17T06:31:47.793Z,28.10
2023-04-17T06:36:53.660Z,27.90
2023-04-17T06:42:17.410Z,28.80
2023-04-17T06:47:21.088Z,25.80
2023-04-17T06:52:27.182Z,25.10
2023-04-17T06:57:30.731Z,33.70
2023-04-17T07:02:34.327Z,26.40
2023-04-17T07:07:38.048Z,26.20
2023-04-17T07:12:43.971Z,43.80
2023-04-17T07:17:47.386Z,37.90
2023-04-17T07:22:51.181Z,48.10
2023-04-17T07:27:55.171Z,30.00
2023-04-17T07:32:58.862Z,29.70
2023-04-17T07:38:04.118Z,27.80
2023-04-17T07:43:07.434Z,27.40
2023-04-17T07:48:11.186Z,23.40
2023-04-17T07:53:14.777Z,22.70
2023-04-17T07:58:18.329Z,34.00
2023-04-17T08:03:31.931Z,23.00
2023-04-17T08:08:35.484Z,25.20
2023-04-17T08:13:38.770Z,23.70
2023-04-17T08:18:42.239Z,21.00
2023-04-17T08:23:45.784Z,24.50
2023-04-17T08:28:53.836Z,21.30
2023-04-17T08:34:06.528Z,20.80
2023-04-17T08:39:33.194Z,23.40
2023-04-17T08:44:39.777Z,23.90
2023-04-17T08:49:44.107Z,23.60
2023-04-17T08:54:50.981Z,22.80
2023-04-17T08:59:54.827Z,19.10
2023-04-17T09:05:09.797Z,20.40
2023-04-17T09:10:13.142Z,20.80
2023-04-17T09:15:17.246Z,23.30
2023-04-17T09:20:21.259Z,21.70
2023-04-17T09:25:28.344Z,21.90
2023-04-17T09:30:37.433Z,19.20
2023-04-17T09:35:41.046Z,21.20
2023-04-17T09:40:46.949Z,20.80
2023-04-17T09:45:52.503Z,21.70
2023-04-17T09:50:56.994Z,21.80
2023-04-17T09:56:01.755Z,18.40
2023-04-17T10:01:05.932Z,18.50
2023-04-17T10:06:09.730Z,21.80
2023-04-17T10:11:13.802Z,20.40
2023-04-17T10:16:17.223Z,22.50
2023-04-17T10:21:22.721Z,20.00
2023-04-17T10:26:26.049Z,17.80
2023-04-17T10:32:07.669Z,19.40
2023-04-17T10:37:15.562Z,19.40
2023-04-17T10:42:21.111Z,17.80
2023-04-17T10:47:32.229Z,17.40
2023-04-17T10:52:42.016Z,17.00
2023-04-17T10:58:13.204Z,17.10
2023-04-17T11:03:17.526Z,16.70
2023-04-17T11:08:22.541Z,17.30
2023-04-17T11:13:26.009Z,19.80
2023-04-17T11:18:29.709Z,18.40
2023-04-17T11:23:36.410Z,19.00
2023-04-17T11:28:39.834Z,16.00
2023-04-17T11:33:43.441Z,13.60
2023-04-17T11:38:48.588Z,17.00
2023-04-17T11:43:52.101Z,14.10
2023-04-17T11:48:55.408Z,14.20
2023-04-17T11:53:59.646Z,22.10
2023-04-17T11:59:05.133Z,13.70
2023-04-17T12:04:21.216Z,11.60
2023-04-17T12:09:28.273Z,12.20
2023-04-17T12:14:32.443Z,14.40
2023-04-17T12:19:35.862Z,15.60
2023-04-17T12:24:39.265Z,12.60
2023-04-17T12:29:44.726Z,13.60
2023-04-17T12:34:48.925Z,12.90
2023-04-17T12:39:52.297Z,10.80
2023-04-17T12:44:55.774Z,12.00
2023-04-17T12:49:59.365Z,10.80
2023-04-17T12:55:04.152Z,11.20
2023-04-17T13:00:10.959Z,11.30
2023-04-17T13:05:14.240Z,10.40
2023-04-17T13:10:20.510Z,10.40
2023-04-17T13:15:27.005Z,12.70
2023-04-17T13:20:30.388Z,11.70
2023-04-17T13:25:33.850Z,11.50
2023-04-17T13:30:37.835Z,11.60
2023-04-17T13:35:41.573Z,12.50
2023-04-17T13:40:45.122Z,10.60
2023-04-17T13:45:49.835Z,8.10
2023-04-17T13:50:54.598Z,8.30
2023-04-17T13:55:57.806Z,8.00
2023-04-17T14:01:01.078Z,8.60
2023-04-17T14:06:07.238Z,8.30
2023-04-17T14:11:11.098Z,8.50
2023-04-17T14:16:19.181Z,10.80
2023-04-17T14:21:22.695Z,7.00
2023-04-17T14:26:28.715Z,8.20
2023-04-17T14:31:32.269Z,10.60
2023-04-17T14:36:35.980Z,8.60
2023-04-17T14:41:39.570Z,7.60
2023-04-17T14:46:43.434Z,9.10
2023-04-17T14:51:46.951Z,9.90
2023-04-17T14:56:50.736Z,8.50
2023-04-17T15:01:54.457Z,10.00
2023-04-17T15:07:10.153Z,7.70
2023-04-17T15:12:13.644Z,9.20
2023-04-17T15:17:17.299Z,8.90
2023-04-17T15:22:20.766Z,8.90
2023-04-17T15:27:24.677Z,9.80
2023-04-17T15:32:28.062Z,11.40
2023-04-17T15:37:31.301Z,10.90
2023-04-17T15:42:36.947Z,10.10
2023-04-17T15:47:40.572Z,9.00
2023-04-17T15:52:44.640Z,9.10
2023-04-17T15:57:48.042Z,8.30
2023-04-17T16:02:52.148Z,8.10
2023-04-17T16:07:55.941Z,9.40
2023-04-17T16:12:59.183Z,11.00
2023-04-17T16:18:02.458Z,11.70
2023-04-17T16:23:05.916Z,30.90
2023-04-17T16:28:09.249Z,16.80
2023-04-17T16:33:12.745Z,12.10
2023-04-17T16:38:16.265Z,10.90
2023-04-17T16:43:19.817Z,9.60
2023-04-17T16:48:23.298Z,9.40
2023-04-17T16:53:26.669Z,12.30
2023-04-17T16:58:30.079Z,9.90
2023-04-17T17:03:33.953Z,10.50
2023-04-17T17:08:37.164Z,11.10
2023-04-17T17:13:50.394Z,9.50
2023-04-17T17:18:54.541Z,10.00
2023-04-17T17:23:58.988Z,9.10
2023-04-17T17:29:02.597Z,8.50
2023-04-17T17:34:22.508Z,10.50
2023-04-17T17:39:29.265Z,8.30
2023-04-17T17:44:32.855Z,10.30
2023-04-17T17:49:36.193Z,8.90
2023-04-17T17:54:39.889Z,10.80
2023-04-17T17:59:44.047Z,10.40
2023-04-17T18:04:47.531Z,9.50
2023-04-17T18:09:56.709Z,9.90
2023-04-17T18:15:00.191Z,9.60
2023-04-17T18:20:03.849Z,7.80
2023-04-17T18:25:27.748Z,9.80
2023-04-17T18:30:31.673Z,10.00
2023-04-17T18:35:35.596Z,9.20
2023-04-17T18:40:39.378Z,10.60
2023-04-17T18:45:42.981Z,10.90
2023-04-17T18:50:46.833Z,12.40
2023-04-17T18:55:59.444Z,11.40
2023-04-17T19:06:12.629Z,15.70
2023-04-17T19:11:16.211Z,13.20
2023-04-17T19:16:19.534Z,11.90
2023-04-17T19:21:23.223Z,12.10
2023-04-17T19:26:26.907Z,11.30
2023-04-17T19:31:31.882Z,11.20
2023-04-17T19:36:36.027Z,11.90
2023-04-17T19:41:40.236Z,12.30
2023-04-17T19:46:43.482Z,10.70
2023-04-17T19:51:46.615Z,11.70
2023-04-17T19:57:10.380Z,13.00
2023-04-17T20:02:14.078Z,13.90
2023-04-17T20:13:13.853Z,13.60
2023-04-17T20:18:17.920Z,14.80
2023-04-17T20:23:21.886Z,15.30
2023-04-17T20:28:25.103Z,14.60
2023-04-17T20:34:02.864Z,13.00
2023-04-17T20:39:12.942Z,16.00
2023-04-17T20:44:16.625Z,15.10
2023-04-17T20:49:20.141Z,13.80
2023-04-17T20:54:26.390Z,16.70
2023-04-17T20:59:37.371Z,16.30
2023-04-17T21:04:40.928Z,16.60
2023-04-17T21:09:44.172Z,17.50
2023-04-17T21:14:47.431Z,18.20
2023-04-17T21:20:21.764Z,17.40
2023-04-17T21:26:36.740Z,19.80
2023-04-17T21:32:07.235Z,18.20
2023-04-17T21:37:36.203Z,17.50
2023-04-17T21:42:42.861Z,17.70
2023-04-17T21:47:46.325Z,19.30
2023-04-17T21:52:50.178Z,15.70
2023-04-17T21:57:53.484Z,17.40
2023-04-17T22:02:56.946Z,17.30
2023-04-17T22:08:01.532Z,18.90
2023-04-17T22:13:05.544Z,20.50
2023-04-17T22:18:09.035Z,24.80
2023-04-17T22:23:12.521Z,24.20
2023-04-17T22:28:16.507Z,23.20
2023-04-17T22:33:39.920Z,22.80
2023-04-17T22:39:03.816Z,23.20
2023-04-17T22:44:07.326Z,23.10
2023-04-17T22:49:10.613Z,23.70
2023-04-17T22:54:22.149Z,27.00
2023-04-17T22:59:26.966Z,25.10
2023-04-17T23:04:53.265Z,23.20
2023-04-17T23:10:38.852Z,22.20
2023-04-17T23:15:42.850Z,25.10
2023-04-17T23:21:06.628Z,27.50
2023-04-17T23:26:20.131Z,30.40
2023-04-17T23:31:23.656Z,28.30
2023-04-17T23:36:27.088Z,27.70
2023-04-17T23:42:11.085Z,27.10
2023-04-17T23:47:14.442Z,30.20
2023-04-17T23:52:19.471Z,29.50
2023-04-17T23:57:22.832Z,28.60
